x

Louisiana Offshore Oil Port, La (lopl1) Wave Buoy

6:57am - Sun 25th Sep 2016 All times are CDT. -5 hours from GMT.

  • Sig Wave height 1.3ft
  • Wind
    5mph, 7mph gusts
  • Air Temp 82°f
  • Sea Pressure 1017.1mb
  • Louisiana Offshore Oil Port, La
  • Louisiana Offshore Oil Port, La

More Historic Weather Station data

Upgrade to MSW Pro to gain access to the past 30 days of data for over 8000 Wavebouys and Weather Stations around the globe.

Join Pro

Comparision Forecast

View Surf forecast
   
Sun 09/25 6:57am 1.3ft 5 7 mph 1017.1mb 82f
5:57am 1.3ft 6 7 mph 1016.1mb 82f
4:57am 1.3ft 6 8 mph 1016.1mb 82f
3:57am 1.3ft 6 8 mph 1016.1mb 82f
2:57am 1.3ft 9 10 mph 1016.1mb 82f
1:57am 1.3ft 9 10 mph 1016.1mb 82f
12:57am 1ft 11 14 mph 1016.1mb 82f
Sat 09/24 11:57pm 1ft 9 11 mph 1016.1mb 82f
10:57pm 1ft 10 13 mph 1016.1mb 82f
9:52pm 1ft 8 9 mph 1016.1mb 82f
8:52pm 1ft 7 8 mph 1016.1mb 83f
7:52pm 1ft 7 11 mph 1016.1mb 83f
6:52pm 1ft 10 11 mph 1016.1mb 83f
5:52pm 1ft 8 10 mph 1016.1mb 83f
4:52pm 1ft 9 13 mph 1016.1mb 84f
3:52pm 1ft 10 14 mph 1016.1mb 83f
2:52pm 1ft 11 14 mph 1017.1mb 83f
1:52pm 1.3ft 10 11 mph 1017.1mb 83f
12:52pm 1ft 7 10 mph 1018.1mb 83f
11:52am 1ft 9 11 mph 1018.1mb 83f
10:52am 1ft 8 11 mph 1019.1mb 83f
9:52am 1ft 9 10 mph 1019.1mb 83f
8:52am 1ft 6 8 mph 1019.1mb 83f
7:52am 1ft 7 8 mph 1018.1mb 83f
6:52am 1ft 6 8 mph 1018.1mb 82f
5:52am 1ft 7 8 mph 1017.1mb 82f
4:52am 1ft 5 6 mph 1017.1mb 82f
3:37am 1ft 7 9 mph 1017.1mb 83f
2:37am 1ft 9 11 mph 1016.1mb 83f
1:37am 1ft 8 11 mph 1017.1mb 83f
12:37am 1ft 7 8 mph 1017.1mb 83f
Fri 09/23 11:37pm 1.3ft 9 10 mph 1017.1mb 83f
10:37pm 1.3ft 9 11 mph 1017.1mb 83f
9:37pm 1.3ft 9 11 mph 1017.1mb 83f
8:37pm 1.3ft 9 11 mph 1016.1mb 84f
7:17pm 1.3ft 13
mph
1016.1mb 83f
6:17pm 1.3ft 9 14 mph 1016.1mb 84f
5:17pm 1.3ft 9 10 mph 1016.1mb 84f
5:07pm 1.3ft 8 10 mph 1016.1mb 84f
4:02pm 1ft 10 11 mph 1016.1mb 84f
3:02pm 1ft 8 9 mph 1016.1mb 84f
2:02pm 1ft 9 10 mph 1017.1mb 83f
1:02pm 1ft 8 10 mph 1017.1mb 83f
12:02pm 1ft 8 9 mph 1018.1mb 83f
11:02am 1ft 9 10 mph 1018.1mb 83f
10:02am 1ft 8 10 mph 1018.1mb 83f
9:02am 1ft 7 9 mph 1018.1mb 83f
8:02am 1ft 5 6 mph 1018.1mb 83f
7:02am 1ft 6 8 mph 1018.1mb 82f
6:02am 1.3ft 5 7 mph 1017.1mb 82f
5:02am 1.3ft 7 8 mph 1016.1mb 82f
4:02am 1.3ft 7 8 mph 1016.1mb 82f
2:52am 1.3ft 7 8 mph 1016.1mb 83f
1:52am 1.3ft 8 10 mph 1016.1mb 83f
12:52am 1.3ft 8 10 mph 1016.1mb 83f
Thu 09/22 11:52pm 1.3ft 8 10 mph 1016.1mb 83f
10:52pm 1.3ft 9 11 mph 1017.1mb 83f
9:52pm 1.3ft 11 14 mph 1017.1mb 83f
8:52pm 1.3ft 11 14 mph 1016.1mb 84f
7:52pm 1.3ft 11 14 mph 1015.1mb 83f
6:52pm 1.3ft 9 11 mph 1015.1mb 84f
5:52pm 1ft 9 10 mph 1015.1mb 84f
4:52pm 1ft 10 13 mph 1015.1mb 84f
3:52pm 1ft 9 11 mph 1016.1mb 84f
2:52pm 1ft 10 11 mph 1016.1mb 84f
1:52pm 1.3ft 10 13 mph 1016.1mb 84f
12:47pm 1ft 11 14 mph 1017.1mb 83f
11:47am 1.3ft 9 11 mph 1017.1mb 83f
10:47am 1.3ft 8 9 mph 1017.1mb 83f
9:47am 1.3ft 9 11 mph 1017.1mb 83f
8:47am 1.3ft 8 9 mph 1017.1mb 83f
7:47am 1ft 9 10 mph 1017.1mb 83f
6:47am 1ft 7 9 mph 1016.1mb 83f
5:47am 1.3ft 6 7 mph 1016.1mb 83f
4:47am 1.3ft 8 9 mph 1015.1mb 83f
3:47am 1.3ft 8 9 mph 1015.1mb 83f
2:37am 1.3ft 9 11 mph 1015.1mb 83f
1:37am 1.3ft 9 10 mph 1015.1mb 83f
12:37am 1.3ft 7 9 mph 1016.1mb 83f
Wed 09/21 11:37pm 1.3ft 10 13 mph 1016.1mb 83f
10:37pm 1.3ft 9 10 mph 1016.1mb 83f
9:37pm 1.3ft 9 11 mph 1016.1mb 83f
8:37pm 1.6ft 9 11 mph 1016.1mb 83f
7:37pm 1.3ft 10 13 mph 1016.1mb 83f
6:27pm 1.6ft 10 11 mph 1015.1mb 83f
5:27pm 1.6ft 11 13 mph 1015.1mb 83f
4:27pm 1.6ft 10 11 mph 1015.1mb 84f
3:27pm 1.6ft 11 14 mph 1015.1mb 84f
2:27pm 1.6ft 10 13 mph 1015.1mb 84f
1:27pm 1.6ft 13 15 mph 1015.1mb 83f